createdAt,value
2023-03-18T00:01:33.621Z,11.43
2023-03-18T00:04:00.540Z,13.20
2023-03-18T00:06:26.769Z,8.38
2023-03-18T00:08:52.793Z,11.90
2023-03-18T00:11:20.872Z,10.98
2023-03-18T00:13:47.456Z,8.32
2023-03-18T00:16:13.352Z,11.05
2023-03-18T00:18:39.718Z,9.68
2023-03-18T00:21:05.578Z,10.98
2023-03-18T00:23:32.361Z,11.85
2023-03-18T00:26:00.136Z,10.07
2023-03-18T00:28:26.908Z,11.15
2023-03-18T00:30:53.410Z,10.20
2023-03-18T00:33:22.629Z,9.98
2023-03-18T00:35:48.578Z,12.95
2023-03-18T00:38:20.516Z,9.73
2023-03-18T00:40:52.899Z,12.25
2023-03-18T00:43:22.022Z,13.05
2023-03-18T00:45:48.959Z,9.98
2023-03-18T00:48:15.238Z,11.57
2023-03-18T00:50:41.181Z,15.05
2023-03-18T00:53:07.005Z,9.00
2023-03-18T00:55:32.784Z,11.95
2023-03-18T00:57:58.526Z,10.27
2023-03-18T01:00:25.536Z,11.77
2023-03-18T01:02:51.502Z,11.55
2023-03-18T01:05:17.814Z,17.33
2023-03-18T01:07:43.886Z,9.50
2023-03-18T01:10:10.829Z,10.63
2023-03-18T01:12:37.084Z,15.05
2023-03-18T01:15:04.918Z,10.07
2023-03-18T01:17:30.836Z,7.03
2023-03-18T01:19:56.742Z,11.77
2023-03-18T01:22:22.697Z,9.75
2023-03-18T01:24:48.690Z,8.77
2023-03-18T01:27:14.438Z,8.90
2023-03-18T01:29:40.744Z,11.63
2023-03-18T01:32:06.561Z,8.32
2023-03-18T01:34:32.342Z,10.98
2023-03-18T01:36:58.230Z,15.38
2023-03-18T01:39:24.188Z,10.60
2023-03-18T01:41:50.243Z,11.15
2023-03-18T01:44:18.490Z,9.60
2023-03-18T01:46:45.298Z,10.40
2023-03-18T01:49:19.908Z,8.30
2023-03-18T01:51:59.677Z,11.85
2023-03-18T01:54:26.359Z,9.25
2023-03-18T01:56:53.248Z,9.85
2023-03-18T01:59:20.861Z,8.10
2023-03-18T02:01:52.542Z,8.65
2023-03-18T02:04:19.054Z,8.38
2023-03-18T02:06:44.951Z,11.38
2023-03-18T02:09:11.148Z,9.75
2023-03-18T02:11:39.829Z,10.15
2023-03-18T02:14:06.454Z,10.40
2023-03-18T02:16:43.682Z,9.25
2023-03-18T02:19:16.265Z,8.85
2023-03-18T02:22:05.033Z,10.40
2023-03-18T02:24:37.214Z,9.82
2023-03-18T02:27:07.427Z,9.32
2023-03-18T02:29:34.906Z,9.50
2023-03-18T02:32:02.368Z,10.15
2023-03-18T02:34:28.531Z,11.57
2023-03-18T02:36:54.506Z,8.02
2023-03-18T02:39:21.079Z,10.30
2023-03-18T02:41:46.824Z,10.50
2023-03-18T02:44:12.577Z,11.60
2023-03-18T02:46:53.438Z,8.32
2023-03-18T02:51:45.865Z,9.75
2023-03-18T02:54:13.270Z,10.15
2023-03-18T02:56:40.577Z,7.70
2023-03-18T02:59:06.963Z,9.20
2023-03-18T03:01:33.457Z,10.85
2023-03-18T03:03:59.539Z,10.75
2023-03-18T03:06:25.914Z,9.05
2023-03-18T03:08:52.322Z,10.98
2023-03-18T03:11:18.977Z,8.02
2023-03-18T03:13:45.217Z,10.88
2023-03-18T03:16:11.856Z,7.70
2023-03-18T03:18:37.831Z,8.13
2023-03-18T03:21:04.399Z,8.43
2023-03-18T03:23:30.462Z,9.48
2023-03-18T03:25:56.559Z,7.35
2023-03-18T03:28:22.307Z,9.60
2023-03-18T03:30:48.801Z,11.70
2023-03-18T03:33:14.973Z,9.85
2023-03-18T03:35:41.395Z,9.65
2023-03-18T03:38:07.335Z,13.18
2023-03-18T03:40:33.484Z,12.30
2023-03-18T03:42:59.425Z,10.27
2023-03-18T03:45:25.153Z,11.07
2023-03-18T03:47:50.916Z,8.23
2023-03-18T03:50:17.266Z,11.32
2023-03-18T03:52:43.176Z,10.13
2023-03-18T03:55:10.262Z,8.05
2023-03-18T03:57:36.482Z,13.15
2023-03-18T04:00:06.702Z,9.23
2023-03-18T04:02:32.728Z,10.80
2023-03-18T04:04:59.474Z,8.88
2023-03-18T04:07:25.584Z,10.90
2023-03-18T04:09:51.287Z,10.63
2023-03-18T04:12:18.918Z,9.15
2023-03-18T04:14:46.255Z,11.70
2023-03-18T04:17:12.154Z,9.55
2023-03-18T04:19:38.712Z,9.32
2023-03-18T04:22:04.800Z,9.20
2023-03-18T04:24:30.923Z,11.95
2023-03-18T04:26:56.889Z,10.45
2023-03-18T04:29:22.642Z,10.77
2023-03-18T04:31:48.416Z,12.02
2023-03-18T04:34:14.258Z,14.02
2023-03-18T04:36:40.142Z,11.77
2023-03-18T04:39:05.866Z,8.77
2023-03-18T04:41:31.819Z,9.25
2023-03-18T04:43:57.595Z,11.52
2023-03-18T04:46:23.440Z,13.30
2023-03-18T04:48:49.162Z,12.00
2023-03-18T04:51:14.917Z,9.95
2023-03-18T04:53:41.429Z,13.95
2023-03-18T04:56:08.175Z,10.35
2023-03-18T04:58:34.178Z,10.88
2023-03-18T05:01:00.229Z,7.88
2023-03-18T05:03:25.947Z,11.63
2023-03-18T05:05:51.665Z,18.05
2023-03-18T05:08:17.608Z,12.32
2023-03-18T05:10:43.403Z,8.93
2023-03-18T05:13:10.264Z,10.75
2023-03-18T05:15:36.248Z,13.32
2023-03-18T05:18:02.045Z,6.75
2023-03-18T05:20:28.124Z,9.50
2023-03-18T05:22:53.896Z,11.77
2023-03-18T05:25:20.728Z,17.88
2023-03-18T05:27:46.976Z,27.50
2023-03-18T05:30:13.034Z,9.40
2023-03-18T05:32:38.897Z,13.48
2023-03-18T05:35:05.180Z,12.35
2023-03-18T05:37:30.961Z,9.15
2023-03-18T05:39:56.753Z,8.75
2023-03-18T05:42:22.470Z,10.77
2023-03-18T05:44:49.050Z,10.65
2023-03-18T05:47:14.904Z,12.00
2023-03-18T05:49:40.742Z,8.63
2023-03-18T05:52:06.501Z,8.23
2023-03-18T05:54:32.632Z,17.23
2023-03-18T05:56:58.911Z,11.05
2023-03-18T05:59:25.094Z,15.40
2023-03-18T06:01:52.005Z,9.77
2023-03-18T06:04:18.566Z,11.57
2023-03-18T06:06:44.738Z,12.07
2023-03-18T06:09:11.403Z,8.23
2023-03-18T06:11:37.563Z,13.10
2023-03-18T06:14:06.699Z,7.45
2023-03-18T06:16:33.273Z,10.43
2023-03-18T06:18:59.197Z,9.25
2023-03-18T06:21:26.556Z,12.82
2023-03-18T06:23:53.414Z,10.00
2023-03-18T06:26:20.390Z,11.40
2023-03-18T06:28:46.356Z,12.52
2023-03-18T06:31:12.515Z,10.35
2023-03-18T06:33:38.473Z,10.18
2023-03-18T06:36:04.953Z,10.63
2023-03-18T06:38:31.634Z,11.38
2023-03-18T06:40:57.916Z,12.15
2023-03-18T06:43:23.965Z,9.80
2023-03-18T06:45:50.088Z,11.68
2023-03-18T06:48:16.728Z,12.25
2023-03-18T06:50:43.386Z,7.90
2023-03-18T06:53:09.954Z,11.85
2023-03-18T06:55:37.414Z,7.72
2023-03-18T06:58:04.814Z,18.45
2023-03-18T07:00:31.243Z,9.85
2023-03-18T07:02:57.212Z,8.82
2023-03-18T07:05:23.265Z,10.07
2023-03-18T07:07:50.193Z,7.72
2023-03-18T07:10:27.491Z,14.73
2023-03-18T07:12:53.867Z,9.00
2023-03-18T07:15:22.904Z,10.85
2023-03-18T07:17:49.907Z,8.98
2023-03-18T07:20:16.401Z,11.40
2023-03-18T07:22:43.252Z,8.75
2023-03-18T07:25:09.572Z,8.30
2023-03-18T07:27:35.373Z,8.52
2023-03-18T07:30:01.983Z,10.25
2023-03-18T07:32:37.855Z,7.80
2023-03-18T07:35:05.032Z,11.30
2023-03-18T07:37:31.485Z,11.60
2023-03-18T07:39:57.233Z,10.98
2023-03-18T07:42:23.191Z,10.75
2023-03-18T07:44:48.965Z,7.93
2023-03-18T07:47:14.940Z,8.40
2023-03-18T07:49:41.023Z,12.82
2023-03-18T07:52:08.067Z,9.98
2023-03-18T07:54:34.250Z,7.75
2023-03-18T07:57:00.557Z,11.90
2023-03-18T07:59:26.706Z,9.32
2023-03-18T08:01:52.481Z,11.52
2023-03-18T08:04:18.766Z,7.32
2023-03-18T08:06:44.690Z,10.32
2023-03-18T08:09:10.505Z,8.30
2023-03-18T08:11:37.540Z,8.38
2023-03-18T08:14:03.321Z,9.13
2023-03-18T08:16:29.684Z,7.95
2023-03-18T08:18:55.915Z,5.53
2023-03-18T08:21:21.849Z,8.05
2023-03-18T08:23:47.956Z,8.48
2023-03-18T08:26:14.022Z,6.38
2023-03-18T08:28:41.172Z,8.38
2023-03-18T08:31:08.996Z,9.48
2023-03-18T08:33:46.982Z,7.10
2023-03-18T08:36:13.606Z,6.85
2023-03-18T08:38:40.122Z,8.13
2023-03-18T08:41:06.103Z,5.25
2023-03-18T08:43:32.182Z,7.25
2023-03-18T08:45:58.102Z,6.38
2023-03-18T08:48:25.210Z,7.78
2023-03-18T08:50:51.975Z,8.63
2023-03-18T08:53:17.952Z,9.32
2023-03-18T08:55:43.995Z,10.23
2023-03-18T08:58:10.002Z,6.32
2023-03-18T09:00:37.133Z,11.18
2023-03-18T09:03:03.597Z,7.10
2023-03-18T09:05:32.813Z,11.10
2023-03-18T09:07:59.932Z,7.88
2023-03-18T09:10:26.309Z,9.30
2023-03-18T09:12:52.181Z,6.50
2023-03-18T09:15:19.649Z,8.00
2023-03-18T09:17:59.870Z,9.18
2023-03-18T09:20:30.270Z,10.02
2023-03-18T09:22:57.091Z,10.00
2023-03-18T09:25:24.008Z,10.20
2023-03-18T09:27:50.071Z,16.92
2023-03-18T09:30:16.049Z,11.93
2023-03-18T09:32:45.110Z,13.02
2023-03-18T09:35:13.120Z,10.15
2023-03-18T09:37:39.982Z,9.88
2023-03-18T09:40:10.205Z,5.03
2023-03-18T09:42:45.201Z,5.75
2023-03-18T09:45:20.788Z,9.27
2023-03-18T09:47:53.588Z,7.07
2023-03-18T09:50:38.692Z,5.82
2023-03-18T09:53:04.670Z,5.85
2023-03-18T09:55:39.607Z,7.35
2023-03-18T09:58:09.780Z,16.42
2023-03-18T10:00:37.158Z,13.52
2023-03-18T10:03:09.211Z,8.60
2023-03-18T10:05:40.023Z,15.82
2023-03-18T10:08:14.988Z,7.18
2023-03-18T10:10:44.253Z,8.05
2023-03-18T10:13:19.001Z,11.23
2023-03-18T10:15:47.186Z,11.07
2023-03-18T10:18:36.133Z,10.30
2023-03-18T10:21:06.391Z,11.70
2023-03-18T10:23:41.179Z,9.18
2023-03-18T10:26:14.736Z,5.50
2023-03-18T10:28:40.785Z,6.93
2023-03-18T10:31:37.323Z,7.10
2023-03-18T10:34:12.568Z,5.90
2023-03-18T10:36:44.975Z,7.47
2023-03-18T10:39:13.192Z,8.35
2023-03-18T10:41:39.875Z,7.72
2023-03-18T10:44:21.815Z,6.45
2023-03-18T10:46:49.818Z,8.10
2023-03-18T10:49:18.806Z,11.10
2023-03-18T10:51:49.586Z,7.38
2023-03-18T10:54:20.812Z,11.10
2023-03-18T10:56:46.845Z,7.15
2023-03-18T10:59:14.790Z,8.25
2023-03-18T11:01:41.512Z,7.47
2023-03-18T11:04:14.516Z,8.10
2023-03-18T11:06:42.887Z,9.43
2023-03-18T11:09:10.539Z,10.18
2023-03-18T11:11:39.274Z,5.32
2023-03-18T11:14:06.657Z,7.72
2023-03-18T11:16:35.676Z,6.70
2023-03-18T11:19:07.582Z,7.03
2023-03-18T11:21:33.992Z,7.88
2023-03-18T11:24:24.512Z,9.57
2023-03-18T11:26:54.977Z,7.82
2023-03-18T11:29:23.848Z,9.20
2023-03-18T11:31:57.383Z,5.57
2023-03-18T11:34:27.554Z,7.57
2023-03-18T11:37:00.393Z,6.85
2023-03-18T11:39:28.201Z,6.32
2023-03-18T11:41:54.302Z,6.75
2023-03-18T11:44:38.119Z,4.88
2023-03-18T11:47:12.099Z,5.20
2023-03-18T11:49:38.380Z,5.25
2023-03-18T11:52:13.500Z,5.35
2023-03-18T11:54:39.277Z,5.93
2023-03-18T11:57:11.540Z,6.75
2023-03-18T11:59:40.459Z,5.18
2023-03-18T12:02:09.649Z,5.10
2023-03-18T12:04:54.173Z,6.97
2023-03-18T12:07:38.802Z,5.63
2023-03-18T12:10:14.495Z,8.90
2023-03-18T12:12:59.272Z,6.00
2023-03-18T12:15:32.735Z,6.65
2023-03-18T12:18:08.178Z,8.50
2023-03-18T12:21:01.059Z,6.03
2023-03-18T12:23:27.296Z,7.20
2023-03-18T12:25:58.374Z,7.13
2023-03-18T12:28:30.670Z,6.07
2023-03-18T12:31:15.808Z,7.18
2023-03-18T12:33:48.973Z,6.13
2023-03-18T12:36:24.154Z,7.50
2023-03-18T12:39:09.082Z,6.70
2023-03-18T12:41:44.980Z,5.97
2023-03-18T12:44:11.317Z,4.55
2023-03-18T12:46:56.329Z,7.20
2023-03-18T12:49:29.072Z,4.40
2023-03-18T12:52:04.030Z,7.93
2023-03-18T12:54:31.758Z,6.22
2023-03-18T12:57:01.197Z,6.05
2023-03-18T12:59:27.190Z,7.53
2023-03-18T13:02:03.137Z,6.13
2023-03-18T13:04:31.002Z,7.35
2023-03-18T13:07:07.591Z,9.77
2023-03-18T13:09:45.414Z,5.65
2023-03-18T13:12:23.279Z,7.55
2023-03-18T13:14:54.042Z,8.32
2023-03-18T13:17:23.688Z,6.35
2023-03-18T13:19:49.661Z,5.80
2023-03-18T13:22:23.216Z,5.70
2023-03-18T13:24:58.808Z,6.75
2023-03-18T13:27:24.686Z,4.38
2023-03-18T13:30:09.562Z,7.28
2023-03-18T13:33:03.323Z,4.43
2023-03-18T13:35:30.738Z,7.72
2023-03-18T13:37:56.926Z,6.47
2023-03-18T13:40:42.747Z,3.10
2023-03-18T13:43:12.868Z,3.45
2023-03-18T13:45:40.572Z,2.50
2023-03-18T13:48:08.345Z,3.50
2023-03-18T13:50:39.487Z,4.75
2023-03-18T13:53:17.161Z,7.05
2023-03-18T13:55:47.080Z,6.55
2023-03-18T13:58:19.745Z,6.28
2023-03-18T14:01:08.906Z,3.92
2023-03-18T14:03:41.395Z,4.95
2023-03-18T14:06:07.830Z,3.08
2023-03-18T14:08:33.574Z,5.30
2023-03-18T14:11:22.425Z,5.55
2023-03-18T14:13:58.055Z,5.82
2023-03-18T14:16:27.561Z,3.50
2023-03-18T14:19:03.091Z,5.53
2023-03-18T14:21:30.059Z,4.07
2023-03-18T14:24:12.953Z,8.52
2023-03-18T14:26:40.729Z,4.60
2023-03-18T14:29:06.699Z,5.70
2023-03-18T14:31:38.920Z,2.88
2023-03-18T14:34:17.241Z,2.33
2023-03-18T14:36:43.061Z,4.57
2023-03-18T14:39:13.863Z,4.05
2023-03-18T14:41:42.562Z,4.32
2023-03-18T14:44:20.527Z,5.45
2023-03-18T14:46:51.325Z,3.72
2023-03-18T14:49:36.242Z,2.85
2023-03-18T14:52:04.719Z,3.63
2023-03-18T14:54:34.405Z,3.97
2023-03-18T14:57:02.173Z,3.53
2023-03-18T14:59:28.307Z,2.67
2023-03-18T15:02:01.658Z,4.20
2023-03-18T15:04:27.789Z,6.10
2023-03-18T15:06:55.046Z,5.38
2023-03-18T15:09:26.687Z,4.10
2023-03-18T15:11:53.793Z,4.78
2023-03-18T15:14:27.187Z,6.13
2023-03-18T15:16:53.904Z,4.80
2023-03-18T15:19:20.457Z,10.13
2023-03-18T15:21:47.436Z,3.63
2023-03-18T15:24:20.073Z,6.22
2023-03-18T15:26:55.010Z,7.43
2023-03-18T15:29:28.539Z,5.00
2023-03-18T15:32:09.706Z,6.20
2023-03-18T15:34:37.588Z,5.95
2023-03-18T15:37:23.855Z,6.25
2023-03-18T15:39:56.103Z,4.78
2023-03-18T15:42:22.697Z,5.07
2023-03-18T15:44:58.172Z,3.10
2023-03-18T15:47:26.837Z,6.57
2023-03-18T15:49:58.126Z,4.60
2023-03-18T15:52:25.817Z,2.65
2023-03-18T15:54:52.829Z,4.82
2023-03-18T15:57:38.262Z,7.90
2023-03-18T16:00:10.747Z,3.80
2023-03-18T16:02:50.064Z,6.95
2023-03-18T16:05:21.223Z,5.20
2023-03-18T16:07:47.543Z,7.90
2023-03-18T16:10:18.464Z,5.18
2023-03-18T16:12:46.200Z,7.50
2023-03-18T16:15:20.782Z,8.93
2023-03-18T16:17:48.100Z,3.60
2023-03-18T16:20:18.455Z,4.22
2023-03-18T16:22:44.515Z,4.93
2023-03-18T16:25:11.434Z,7.68
2023-03-18T16:27:38.837Z,7.43
2023-03-18T16:30:05.648Z,7.28
2023-03-18T16:33:02.789Z,6.03
2023-03-18T16:35:33.569Z,4.35
2023-03-18T16:38:03.916Z,3.40
2023-03-18T16:40:30.912Z,5.15
2023-03-18T16:42:57.303Z,5.47
2023-03-18T16:45:24.693Z,5.50
2023-03-18T16:47:51.502Z,4.07
2023-03-18T16:50:18.908Z,6.20
2023-03-18T16:52:45.141Z,5.45
2023-03-18T16:55:12.042Z,5.70
2023-03-18T16:57:37.995Z,5.15
2023-03-18T17:00:09.136Z,4.78
2023-03-18T17:02:35.205Z,4.90
2023-03-18T17:05:01.557Z,7.97
2023-03-18T17:07:28.965Z,6.07
2023-03-18T17:09:54.953Z,4.43
2023-03-18T17:12:22.296Z,9.35
2023-03-18T17:14:55.813Z,9.35
2023-03-18T17:17:26.109Z,6.22
2023-03-18T17:19:52.003Z,9.00
2023-03-18T17:22:23.015Z,6.45
2023-03-18T17:24:49.614Z,12.50
2023-03-18T17:27:21.478Z,11.98
2023-03-18T17:29:47.498Z,8.85
2023-03-18T17:32:18.915Z,7.85
2023-03-18T17:34:48.937Z,6.18
2023-03-18T17:37:14.715Z,9.50
2023-03-18T17:39:41.014Z,9.80
2023-03-18T17:42:13.543Z,8.73
2023-03-18T17:44:39.388Z,15.50
2023-03-18T17:47:05.432Z,11.35
2023-03-18T17:49:31.904Z,6.80
2023-03-18T17:51:58.222Z,7.45
2023-03-18T17:54:28.396Z,10.45
2023-03-18T17:56:54.452Z,7.40
2023-03-18T17:59:20.636Z,8.95
2023-03-18T18:02:21.875Z,7.18
2023-03-18T18:04:47.741Z,11.02
2023-03-18T18:07:17.786Z,8.10
2023-03-18T18:09:44.029Z,6.35
2023-03-18T18:12:19.319Z,9.63
2023-03-18T18:14:45.906Z,10.00
2023-03-18T18:17:16.239Z,12.52
2023-03-18T18:19:42.530Z,15.80
2023-03-18T18:22:20.176Z,13.57
2023-03-18T18:24:48.220Z,12.13
2023-03-18T18:27:15.199Z,9.25
2023-03-18T18:29:45.424Z,12.25
2023-03-18T18:32:11.593Z,7.80
2023-03-18T18:34:37.841Z,11.15
2023-03-18T18:37:04.143Z,9.70
2023-03-18T18:39:30.944Z,10.95
2023-03-18T18:41:56.836Z,12.50
2023-03-18T18:44:22.856Z,10.88
2023-03-18T18:46:48.711Z,13.55
2023-03-18T18:49:21.383Z,12.43
2023-03-18T18:51:48.313Z,11.85
2023-03-18T18:54:14.632Z,14.40
2023-03-18T18:56:41.880Z,10.68
2023-03-18T18:59:23.711Z,13.68
2023-03-18T19:01:54.901Z,14.43
2023-03-18T19:04:23.687Z,20.35
2023-03-18T19:06:51.101Z,14.10
2023-03-18T19:09:25.088Z,13.60
2023-03-18T19:11:52.107Z,14.02
2023-03-18T19:14:18.735Z,10.95
2023-03-18T19:16:45.019Z,13.85
2023-03-18T19:19:17.998Z,10.57
2023-03-18T19:21:44.344Z,8.10
2023-03-18T19:24:20.429Z,17.90
2023-03-18T19:26:46.950Z,10.27
2023-03-18T19:29:12.923Z,10.43
2023-03-18T19:31:39.364Z,13.75
2023-03-18T19:34:14.354Z,16.33
2023-03-18T19:36:41.005Z,13.18
2023-03-18T19:39:12.959Z,19.05
2023-03-18T19:41:38.920Z,22.05
2023-03-18T19:44:12.695Z,16.50
2023-03-18T19:46:39.190Z,19.95
2023-03-18T19:49:09.943Z,12.57
2023-03-18T19:54:03.337Z,17.50
2023-03-18T19:56:30.602Z,14.98
2023-03-18T19:58:57.372Z,13.73
2023-03-18T20:01:23.704Z,15.85
2023-03-18T20:04:11.210Z,11.38
2023-03-18T20:06:37.093Z,16.90
2023-03-18T20:09:03.179Z,17.77
2023-03-18T20:11:29.053Z,15.70
2023-03-18T20:13:54.894Z,20.17
2023-03-18T20:16:22.104Z,17.15
2023-03-18T20:18:48.693Z,20.48
2023-03-18T20:21:26.666Z,17.00
2023-03-18T20:23:53.328Z,15.35
2023-03-18T20:26:19.744Z,14.85
2023-03-18T20:28:45.894Z,15.45
2023-03-18T20:31:11.944Z,14.90
2023-03-18T20:33:38.208Z,11.63
2023-03-18T20:36:04.312Z,12.10
2023-03-18T20:38:37.771Z,13.10
2023-03-18T20:41:05.557Z,12.85
2023-03-18T20:43:31.597Z,10.15
2023-03-18T20:45:59.009Z,9.73
2023-03-18T20:48:24.815Z,10.90
2023-03-18T20:50:51.108Z,10.40
2023-03-18T20:53:18.360Z,9.90
2023-03-18T20:55:46.270Z,11.05
2023-03-18T20:58:17.283Z,13.13
2023-03-18T21:00:44.751Z,10.57
2023-03-18T21:03:26.418Z,12.57
2023-03-18T21:05:55.912Z,12.77
2023-03-18T21:08:23.483Z,23.08
2023-03-18T21:10:49.720Z,19.35
2023-03-18T21:13:16.986Z,22.25
2023-03-18T21:15:43.307Z,21.50
2023-03-18T21:18:11.909Z,26.55
2023-03-18T21:20:37.856Z,21.02
2023-03-18T21:23:03.756Z,25.60
2023-03-18T21:25:29.652Z,26.42
2023-03-18T21:27:55.704Z,19.17
2023-03-18T21:30:22.199Z,19.73
2023-03-18T21:32:49.977Z,21.80
2023-03-18T21:35:21.028Z,28.73
2023-03-18T21:37:46.824Z,22.35
2023-03-18T21:40:14.591Z,17.08
2023-03-18T21:42:42.233Z,24.33
2023-03-18T21:45:10.828Z,33.50
2023-03-18T21:47:36.821Z,24.65
2023-03-18T21:50:03.196Z,22.77
2023-03-18T21:52:29.965Z,27.88
2023-03-18T21:54:56.256Z,22.92
2023-03-18T21:57:22.769Z,25.33
2023-03-18T21:59:50.092Z,24.23
2023-03-18T22:02:16.474Z,23.73
2023-03-18T22:04:42.453Z,20.50
2023-03-18T22:07:11.711Z,29.08
2023-03-18T22:09:37.922Z,22.73
2023-03-18T22:12:05.910Z,23.10
2023-03-18T22:14:31.863Z,24.65
2023-03-18T22:16:57.661Z,20.30
2023-03-18T22:19:23.434Z,23.27
2023-03-18T22:21:49.212Z,27.40
2023-03-18T22:24:15.071Z,27.83
2023-03-18T22:26:40.952Z,26.33
2023-03-18T22:29:06.690Z,24.35
2023-03-18T22:31:32.643Z,23.98
2023-03-18T22:34:01.447Z,23.77
2023-03-18T22:36:29.104Z,22.13
2023-03-18T22:38:55.234Z,21.40
2023-03-18T22:41:28.592Z,18.52
2023-03-18T22:43:54.626Z,20.33
2023-03-18T22:46:20.388Z,22.27
2023-03-18T22:48:46.174Z,28.08
2023-03-18T22:51:26.642Z,20.02
2023-03-18T22:53:53.031Z,19.63
2023-03-18T22:56:19.252Z,19.60
2023-03-18T22:58:45.178Z,24.15
2023-03-18T23:01:14.646Z,18.48
2023-03-18T23:03:43.185Z,21.33
2023-03-18T23:06:11.352Z,19.20
2023-03-18T23:08:37.182Z,18.08
2023-03-18T23:11:02.985Z,17.45
2023-03-18T23:13:42.410Z,20.75
2023-03-18T23:16:12.617Z,21.75
2023-03-18T23:18:38.540Z,16.70
2023-03-18T23:21:04.594Z,17.58
2023-03-18T23:23:31.101Z,18.90
2023-03-18T23:25:57.379Z,18.67
2023-03-18T23:28:23.168Z,18.42
2023-03-18T23:30:50.930Z,21.65
2023-03-18T23:33:16.845Z,18.83
2023-03-18T23:35:43.498Z,21.40
2023-03-18T23:38:09.677Z,16.60
2023-03-18T23:40:35.577Z,18.70
2023-03-18T23:43:01.311Z,23.83
2023-03-18T23:45:27.420Z,18.65
2023-03-18T23:47:53.637Z,27.88
2023-03-18T23:50:19.423Z,18.60
2023-03-18T23:52:45.244Z,21.40
2023-03-18T23:55:26.817Z,21.58
2023-03-18T23:57:56.854Z,20.23
